Time;durP1;ratioP1;P1;durP2;ratioP2;P2;SDS_P1;SDS_P2;PMS_P1;PMS_P2;Temp;Humidity;BMP_temperature;BMP_pressure;BME280_temperature;BME280_humidity;BME280_pressure;Samples;Min_cycle;Max_cycle;Signal;HPM_P1;HPM_P2
2023/06/28 00:01:55;;;;;;;1.30;1.12;;;22.10;47.10;;;;;;900008;155;27498;-74
2023/06/28 00:04:21;;;;;;;2.05;1.10;;;22.00;47.10;;;;;;900931;155;27324;-74
2023/06/28 00:06:48;;;;;;;1.62;1.32;;;22.00;47.20;;;;;;899790;155;27411;-74
2023/06/28 00:09:14;;;;;;;1.10;1.00;;;22.00;47.30;;;;;;899744;155;27414;-74
2023/06/28 00:11:41;;;;;;;1.45;1.30;;;22.00;47.30;;;;;;899248;155;27303;-74
2023/06/28 00:14:08;;;;;;;1.42;1.25;;;22.00;47.30;;;;;;899139;155;27459;-74
2023/06/28 00:16:34;;;;;;;1.98;1.05;;;22.00;47.40;;;;;;900438;155;27392;-74
2023/06/28 00:19:01;;;;;;;1.50;1.10;;;22.00;47.50;;;;;;898470;155;27530;-74
2023/06/28 00:21:27;;;;;;;0.85;0.85;;;21.90;47.50;;;;;;898118;155;27427;-74
2023/06/28 00:23:54;;;;;;;1.37;1.20;;;21.90;47.60;;;;;;900474;155;27355;-74
2023/06/28 00:26:21;;;;;;;1.37;1.17;;;21.90;47.60;;;;;;898635;155;27358;-74
2023/06/28 00:28:47;;;;;;;1.82;1.20;;;21.90;47.70;;;;;;899329;155;27372;-74
2023/06/28 00:31:14;;;;;;;1.95;1.12;;;21.80;47.70;;;;;;901280;155;27393;-74
2023/06/28 00:33:41;;;;;;;1.87;1.35;;;21.80;47.80;;;;;;899331;155;27497;-74
2023/06/28 00:36:07;;;;;;;1.57;1.30;;;21.80;47.90;;;;;;897995;155;27390;-74
2023/06/28 00:38:35;;;;;;;1.65;1.20;;;21.70;48.00;;;;;;900695;155;27328;-74
2023/06/28 00:41:00;;;;;;;1.52;1.17;;;21.70;48.00;;;;;;899550;155;27495;-74
2023/06/28 00:43:27;;;;;;;1.70;1.20;;;21.70;48.20;;;;;;898127;156;27407;-74
2023/06/28 00:45:53;;;;;;;3.33;1.42;;;21.60;48.20;;;;;;898191;155;27340;-74
2023/06/28 00:48:20;;;;;;;1.72;1.50;;;21.60;49.00;;;;;;901394;155;27387;-74
2023/06/28 00:50:46;;;;;;;2.00;1.22;;;21.60;48.40;;;;;;898881;155;27531;-74
2023/06/28 00:53:13;;;;;;;1.07;1.00;;;21.50;48.60;;;;;;897856;155;27510;-74
2023/06/28 00:55:40;;;;;;;1.45;1.30;;;21.50;48.60;;;;;;898602;155;27327;-74
2023/06/28 00:58:06;;;;;;;3.05;1.40;;;21.50;48.70;;;;;;900805;155;27401;-74
2023/06/28 01:00:33;;;;;;;3.00;1.40;;;21.50;48.80;;;;;;900373;155;27369;-74
2023/06/28 01:03:00;;;;;;;1.40;1.20;;;21.40;48.80;;;;;;899145;155;27496;-74
2023/06/28 01:05:26;;;;;;;2.37;1.37;;;21.40;48.90;;;;;;899923;155;27369;-74
2023/06/28 01:07:53;;;;;;;0.80;0.80;;;21.40;49.00;;;;;;898681;155;27378;-74
2023/06/28 01:10:19;;;;;;;1.75;1.50;;;21.40;49.10;;;;;;899235;155;27486;-74
2023/06/28 01:12:46;;;;;;;1.65;1.20;;;21.40;49.10;;;;;;898341;155;27394;-74
2023/06/28 01:15:12;;;;;;;1.67;1.25;;;21.40;49.20;;;;;;897685;155;27464;-74
2023/06/28 01:17:39;;;;;;;2.47;1.35;;;21.30;49.30;;;;;;898255;155;27447;-74
2023/06/28 01:20:06;;;;;;;2.05;1.22;;;21.30;49.30;;;;;;898734;155;27404;-74
2023/06/28 01:22:32;;;;;;;1.90;1.20;;;21.30;49.40;;;;;;897559;155;27474;-74
2023/06/28 01:24:59;;;;;;;1.65;1.35;;;21.30;49.50;;;;;;898433;155;27362;-74
2023/06/28 01:27:25;;;;;;;4.55;1.10;;;21.30;49.60;;;;;;899238;154;27552;-74
2023/06/28 01:29:56;;;;;;;1.32;1.15;;;21.30;49.60;;;;;;897308;155;27387;-74
2023/06/28 01:32:19;;;;;;;2.00;1.45;;;21.30;49.70;;;;;;898672;155;27408;-74
2023/06/28 01:34:45;;;;;;;1.72;1.30;;;21.30;49.90;;;;;;898854;154;27752;-74
2023/06/28 01:37:12;;;;;;;2.12;1.20;;;21.30;50.00;;;;;;899272;155;27406;-74
2023/06/28 01:39:38;;;;;;;1.55;1.40;;;21.30;50.00;;;;;;900220;155;27709;-74
2023/06/28 01:42:05;;;;;;;1.40;1.30;;;21.30;50.10;;;;;;900469;155;27362;-74
2023/06/28 01:44:32;;;;;;;2.37;1.30;;;21.30;50.20;;;;;;900558;155;27388;-74
2023/06/28 01:46:58;;;;;;;3.77;1.30;;;21.30;50.30;;;;;;897301;155;27455;-74
2023/06/28 01:49:25;;;;;;;3.15;0.95;;;21.30;50.80;;;;;;900703;155;27498;-74
2023/06/28 01:51:51;;;;;;;1.42;1.10;;;21.30;50.60;;;;;;898026;155;27514;-74
2023/06/28 01:54:18;;;;;;;2.40;1.60;;;21.30;50.60;;;;;;895215;155;27336;-74
2023/06/28 01:56:45;;;;;;;1.40;1.20;;;21.30;50.50;;;;;;896430;155;27483;-74
2023/06/28 01:59:11;;;;;;;2.72;1.07;;;21.30;50.60;;;;;;896794;155;27390;-74
2023/06/28 02:01:38;;;;;;;1.75;1.40;;;21.20;50.60;;;;;;898127;155;27310;-74
2023/06/28 02:04:04;;;;;;;2.45;1.45;;;21.20;50.70;;;;;;899668;155;27464;-74
2023/06/28 02:06:31;;;;;;;2.30;1.17;;;21.20;50.70;;;;;;897157;155;27546;-74
2023/06/28 02:08:57;;;;;;;1.22;1.12;;;21.20;50.80;;;;;;899708;155;27426;-74
2023/06/28 02:11:24;;;;;;;1.60;1.50;;;21.20;50.70;;;;;;895254;155;27490;-74
2023/06/28 02:13:51;;;;;;;1.40;1.30;;;21.20;50.70;;;;;;898392;155;27454;-74
2023/06/28 02:16:18;;;;;;;2.40;1.30;;;21.20;50.80;;;;;;899905;155;27483;-74
2023/06/28 02:18:45;;;;;;;2.42;1.52;;;21.10;50.70;;;;;;899201;155;27364;-74
2023/06/28 02:21:10;;;;;;;2.37;1.32;;;21.10;50.80;;;;;;897444;157;27382;-74
2023/06/28 02:23:37;;;;;;;1.98;1.30;;;21.10;50.90;;;;;;897800;155;27966;-74
2023/06/28 02:26:04;;;;;;;1.57;1.47;;;21.10;51.10;;;;;;897339;155;27399;-74
2023/06/28 02:28:30;;;;;;;1.52;1.42;;;21.10;51.10;;;;;;897017;155;27301;-74
2023/06/28 02:30:57;;;;;;;1.50;1.07;;;21.10;51.20;;;;;;901264;155;27402;-74
2023/06/28 02:33:23;;;;;;;1.40;1.30;;;21.10;51.30;;;;;;900208;155;27902;-74
2023/06/28 02:35:50;;;;;;;3.25;1.67;;;21.10;52.00;;;;;;898802;155;27440;-74
2023/06/28 02:38:17;;;;;;;1.50;1.30;;;21.10;51.50;;;;;;899478;157;27321;-74
2023/06/28 02:40:43;;;;;;;2.17;1.42;;;21.10;51.60;;;;;;899038;155;27423;-74
2023/06/28 02:43:10;;;;;;;1.27;1.15;;;21.10;51.60;;;;;;898621;155;27378;-74
2023/06/28 02:45:36;;;;;;;1.40;1.20;;;21.10;51.70;;;;;;898953;155;27408;-74
2023/06/28 02:48:03;;;;;;;1.60;1.35;;;21.10;51.70;;;;;;898702;155;27380;-74
2023/06/28 02:50:30;;;;;;;3.58;1.47;;;21.10;51.80;;;;;;901686;157;27515;-74
2023/06/28 02:52:56;;;;;;;1.50;1.40;;;21.00;52.00;;;;;;897768;153;27521;-76
2023/06/28 02:55:23;;;;;;;2.72;1.50;;;21.00;52.10;;;;;;898233;155;27449;-74
2023/06/28 02:57:50;;;;;;;1.80;1.35;;;21.00;52.20;;;;;;898398;155;27383;-74
2023/06/28 03:00:16;;;;;;;1.82;1.35;;;21.00;52.30;;;;;;898202;155;27529;-74
2023/06/28 03:02:42;;;;;;;2.08;1.87;;;21.00;52.30;;;;;;898425;155;27406;-74
2023/06/28 03:05:09;;;;;;;1.80;1.42;;;20.90;52.40;;;;;;899286;155;27569;-74
2023/06/28 03:07:36;;;;;;;1.82;1.30;;;20.90;52.40;;;;;;899546;155;27535;-74
2023/06/28 03:10:02;;;;;;;1.67;1.57;;;20.90;52.50;;;;;;898530;155;27330;-74
2023/06/28 03:12:29;;;;;;;1.60;1.50;;;20.90;52.60;;;;;;897852;155;27440;-74
2023/06/28 03:14:56;;;;;;;2.95;1.70;;;20.90;52.70;;;;;;900341;154;27776;-74
2023/06/28 03:17:22;;;;;;;1.70;1.60;;;20.90;52.90;;;;;;898386;155;27478;-74
2023/06/28 03:19:49;;;;;;;1.50;1.40;;;20.80;53.00;;;;;;899375;155;27381;-74
2023/06/28 03:22:15;;;;;;;1.67;1.57;;;20.80;53.10;;;;;;900970;155;27384;-74
2023/06/28 03:24:42;;;;;;;1.72;1.45;;;20.80;53.30;;;;;;898916;155;27388;-74
2023/06/28 03:27:08;;;;;;;1.80;1.50;;;20.80;53.30;;;;;;897927;155;27436;-73
2023/06/28 03:29:35;;;;;;;2.22;1.65;;;20.80;53.40;;;;;;897930;155;27434;-74
2023/06/28 03:32:01;;;;;;;1.92;1.32;;;20.80;53.30;;;;;;898324;155;27360;-74
2023/06/28 03:34:28;;;;;;;1.42;1.30;;;20.80;53.40;;;;;;898246;155;27394;-74
2023/06/28 03:36:55;;;;;;;1.40;1.30;;;20.80;53.50;;;;;;899163;155;27508;-74
2023/06/28 03:39:21;;;;;;;1.77;1.67;;;20.80;53.70;;;;;;900084;155;27932;-74
2023/06/28 03:41:48;;;;;;;2.75;1.40;;;20.80;53.80;;;;;;898871;155;27387;-74
2023/06/28 03:44:14;;;;;;;1.47;1.37;;;20.80;53.80;;;;;;899518;155;27371;-74
2023/06/28 03:46:41;;;;;;;1.42;1.32;;;20.90;53.80;;;;;;899125;155;27333;-74
2023/06/28 03:49:08;;;;;;;1.07;1.00;;;20.90;53.60;;;;;;901507;155;27402;-74
2023/06/28 03:51:34;;;;;;;1.50;1.17;;;20.90;53.60;;;;;;897370;155;27522;-74
2023/06/28 03:54:01;;;;;;;1.87;1.32;;;20.80;53.40;;;;;;897606;155;27337;-74
2023/06/28 03:56:27;;;;;;;2.05;1.30;;;20.90;53.40;;;;;;899519;155;27403;-74
2023/06/28 03:58:54;;;;;;;2.12;1.52;;;20.90;53.40;;;;;;897918;155;27418;-74
2023/06/28 04:01:21;;;;;;;1.92;1.50;;;20.90;53.50;;;;;;898086;156;27416;-74
2023/06/28 04:03:47;;;;;;;2.55;1.42;;;20.90;53.40;;;;;;899967;155;27818;-74
2023/06/28 04:06:14;;;;;;;1.67;1.27;;;20.90;53.50;;;;;;898887;155;27338;-74
2023/06/28 04:08:41;;;;;;;5.00;1.50;;;20.90;53.50;;;;;;899115;155;27368;-74
2023/06/28 04:11:07;;;;;;;1.90;1.60;;;20.90;53.50;;;;;;899358;155;27428;-74
2023/06/28 04:13:33;;;;;;;3.40;1.60;;;20.90;53.60;;;;;;899684;155;27412;-74
2023/06/28 04:16:00;;;;;;;1.90;1.25;;;20.90;53.60;;;;;;900417;155;27378;-74
2023/06/28 04:18:27;;;;;;;2.47;1.55;;;20.90;53.70;;;;;;898103;157;27402;-74
2023/06/28 04:20:53;;;;;;;1.85;1.30;;;20.90;53.70;;;;;;898621;158;27420;-74
2023/06/28 04:23:20;;;;;;;3.72;1.60;;;20.90;53.80;;;;;;900728;155;27561;-74
2023/06/28 04:25:46;;;;;;;1.80;1.70;;;20.90;53.80;;;;;;897506;155;27416;-74
2023/06/28 04:28:13;;;;;;;1.77;1.15;;;20.90;53.70;;;;;;900257;155;27331;-74
2023/06/28 04:30:40;;;;;;;3.62;1.75;;;20.90;53.80;;;;;;897611;155;27507;-74
2023/06/28 04:33:06;;;;;;;2.08;1.47;;;20.90;53.80;;;;;;899236;155;27394;-74
2023/06/28 04:35:34;;;;;;;1.67;1.52;;;20.90;53.70;;;;;;900642;155;27394;-74
2023/06/28 04:38:03;;;;;;;1.87;1.32;;;21.00;53.80;;;;;;898358;156;27376;-74
2023/06/28 04:40:27;;;;;;;1.52;1.42;;;20.90;53.70;;;;;;897950;155;27374;-74
2023/06/28 04:42:53;;;;;;;1.42;1.20;;;21.00;53.70;;;;;;900168;155;27393;-74
2023/06/28 04:45:19;;;;;;;1.40;1.27;;;20.90;53.60;;;;;;899647;155;27527;-74
2023/06/28 04:47:46;;;;;;;2.40;1.80;;;21.00;53.60;;;;;;898437;155;27404;-74
2023/06/28 04:50:12;;;;;;;2.12;2.02;;;20.90;53.60;;;;;;900630;155;27350;-74
2023/06/28 04:52:39;;;;;;;1.60;1.50;;;20.90;53.60;;;;;;899329;155;27376;-74
2023/06/28 04:55:06;;;;;;;2.17;1.50;;;21.00;53.80;;;;;;900275;155;27393;-73
2023/06/28 04:57:32;;;;;;;1.40;1.25;;;20.90;53.70;;;;;;898957;155;27713;-74
2023/06/28 04:59:59;;;;;;;2.35;1.22;;;20.90;53.70;;;;;;898061;155;27380;-74
2023/06/28 05:02:25;;;;;;;1.17;1.10;;;20.90;53.80;;;;;;899962;155;27479;-73
2023/06/28 05:04:52;;;;;;;1.72;1.30;;;20.90;53.80;;;;;;897366;155;27435;-73
2023/06/28 05:07:19;;;;;;;1.40;1.30;;;20.90;53.80;;;;;;900226;155;27406;-73
2023/06/28 05:09:48;;;;;;;1.80;1.57;;;20.90;53.80;;;;;;899179;155;27452;-74
2023/06/28 05:12:12;;;;;;;1.92;1.42;;;20.90;53.80;;;;;;897187;156;27402;-74
2023/06/28 05:14:38;;;;;;;1.82;1.20;;;20.90;53.80;;;;;;899798;155;27761;-74
2023/06/28 05:17:05;;;;;;;3.20;1.80;;;20.90;53.90;;;;;;898734;155;27402;-74
2023/06/28 05:19:32;;;;;;;3.45;1.35;;;21.00;53.90;;;;;;899751;155;27435;-74
2023/06/28 05:21:58;;;;;;;1.70;1.50;;;21.00;53.90;;;;;;897951;154;27497;-74
2023/06/28 05:24:25;;;;;;;2.45;1.72;;;21.00;54.00;;;;;;898728;155;27358;-76
2023/06/28 05:26:51;;;;;;;2.55;1.30;;;21.00;54.00;;;;;;899908;155;27392;-76
2023/06/28 05:29:19;;;;;;;1.50;1.40;;;21.00;54.00;;;;;;900137;155;27504;-76
2023/06/28 05:31:45;;;;;;;2.80;1.50;;;21.00;54.00;;;;;;899754;155;27338;-76
2023/06/28 05:34:11;;;;;;;2.15;1.30;;;21.00;54.00;;;;;;899195;155;27428;-74
2023/06/28 05:36:38;;;;;;;5.33;1.57;;;21.10;54.00;;;;;;899721;155;27327;-74
2023/06/28 05:39:04;;;;;;;2.65;1.57;;;21.10;54.00;;;;;;898732;155;27416;-74
2023/06/28 05:41:31;;;;;;;2.08;1.47;;;21.10;54.00;;;;;;898457;157;27424;-74
2023/06/28 05:43:57;;;;;;;1.37;1.27;;;21.10;54.10;;;;;;897328;155;27377;-74
2023/06/28 05:46:24;;;;;;;4.87;2.72;;;21.10;54.20;;;;;;899832;155;27799;-74
2023/06/28 05:48:51;;;;;;;1.75;1.22;;;21.20;54.20;;;;;;899536;155;27451;-74
2023/06/28 05:51:17;;;;;;;1.90;1.42;;;21.20;54.20;;;;;;899682;155;27497;-74
2023/06/28 05:53:44;;;;;;;4.00;1.47;;;21.20;54.10;;;;;;900246;155;28049;-73
2023/06/28 05:56:10;;;;;;;3.65;1.52;;;21.20;54.20;;;;;;898675;155;27372;-74
2023/06/28 05:58:37;;;;;;;4.05;2.30;;;21.30;54.30;;;;;;899202;155;27368;-74
2023/06/28 06:01:04;;;;;;;2.25;1.50;;;21.30;54.20;;;;;;897952;155;27490;-74
2023/06/28 06:03:30;;;;;;;2.60;1.45;;;21.30;54.20;;;;;;898973;156;27564;-74
2023/06/28 06:05:57;;;;;;;4.58;1.62;;;21.40;54.30;;;;;;899534;155;27383;-74
2023/06/28 06:08:23;;;;;;;3.83;1.77;;;21.40;54.40;;;;;;898110;155;27362;-74
2023/06/28 06:10:50;;;;;;;6.22;2.02;;;21.40;54.40;;;;;;899360;155;27783;-74
2023/06/28 06:13:16;;;;;;;1.95;1.50;;;21.40;54.30;;;;;;899577;157;27414;-73
2023/06/28 06:15:43;;;;;;;1.30;1.20;;;21.50;54.30;;;;;;897744;155;27684;-74
2023/06/28 06:18:10;;;;;;;2.92;1.40;;;21.50;54.20;;;;;;897252;155;27462;-74
2023/06/28 06:20:36;;;;;;;3.33;1.70;;;21.50;54.10;;;;;;897977;155;27884;-74
2023/06/28 06:23:03;;;;;;;1.82;1.55;;;21.60;54.00;;;;;;899512;155;27431;-74
2023/06/28 06:25:29;;;;;;;3.20;1.50;;;21.60;54.00;;;;;;898413;155;27489;-74
2023/06/28 06:27:56;;;;;;;2.40;1.62;;;21.60;54.00;;;;;;898459;155;27389;-74
2023/06/28 06:30:23;;;;;;;1.90;1.25;;;21.60;53.90;;;;;;899021;155;27387;-74
2023/06/28 06:32:49;;;;;;;2.05;1.60;;;21.70;53.90;;;;;;900643;155;27406;-74
2023/06/28 06:35:16;;;;;;;2.25;2.02;;;21.70;53.90;;;;;;900011;155;27860;-74
2023/06/28 06:37:45;;;;;;;2.60;1.65;;;21.70;53.90;;;;;;898171;155;27374;-74
2023/06/28 06:40:09;;;;;;;4.72;1.50;;;21.80;53.90;;;;;;899714;155;27494;-73
2023/06/28 06:42:36;;;;;;;5.25;1.77;;;21.80;53.80;;;;;;899147;155;27375;-74
2023/06/28 06:45:02;;;;;;;2.45;1.75;;;21.90;53.70;;;;;;898343;155;27502;-74
2023/06/28 06:47:29;;;;;;;3.37;2.25;;;21.90;53.70;;;;;;899110;155;27488;-74
2023/06/28 06:49:55;;;;;;;2.80;1.67;;;22.00;53.70;;;;;;897661;155;27402;-74
2023/06/28 06:52:22;;;;;;;6.53;1.95;;;22.00;53.70;;;;;;899808;155;27392;-74
2023/06/28 06:54:49;;;;;;;2.65;1.60;;;22.10;53.70;;;;;;898387;155;27423;-74
2023/06/28 06:57:15;;;;;;;3.00;1.42;;;22.10;53.70;;;;;;897874;155;27559;-74
2023/06/28 06:59:42;;;;;;;3.55;2.00;;;22.30;53.80;;;;;;898409;155;27398;-74
2023/06/28 07:02:08;;;;;;;3.95;2.12;;;22.40;53.90;;;;;;900175;155;27448;-74
2023/06/28 07:04:35;;;;;;;3.35;2.05;;;22.50;53.80;;;;;;898187;155;27432;-74
2023/06/28 07:07:01;;;;;;;2.27;1.70;;;22.70;53.80;;;;;;899647;155;27415;-74
2023/06/28 07:09:28;;;;;;;4.20;1.57;;;22.80;53.60;;;;;;890773;155;27502;-74
2023/06/28 07:11:55;;;;;;;2.00;1.90;;;23.00;53.40;;;;;;898391;155;27427;-74
2023/06/28 07:14:21;;;;;;;2.75;1.40;;;23.20;53.30;;;;;;897020;155;27441;-74
2023/06/28 07:16:48;;;;;;;2.08;1.45;;;23.30;53.10;;;;;;899391;155;27410;-74
2023/06/28 07:19:14;;;;;;;2.40;1.27;;;23.40;52.90;;;;;;895040;155;27411;-74
2023/06/28 07:21:41;;;;;;;2.77;1.52;;;23.60;52.90;;;;;;899331;155;27331;-74
2023/06/28 07:24:08;;;;;;;3.10;1.70;;;23.70;53.30;;;;;;897973;155;27335;-74
2023/06/28 07:26:34;;;;;;;1.95;1.20;;;23.80;52.60;;;;;;898994;155;27477;-73
2023/06/28 07:29:01;;;;;;;3.35;1.95;;;24.00;52.60;;;;;;901767;155;27503;-74
2023/06/28 07:31:27;;;;;;;3.47;1.62;;;24.10;52.40;;;;;;899486;155;27315;-74
2023/06/28 07:33:54;;;;;;;2.40;1.67;;;24.30;52.20;;;;;;898828;155;27372;-74
2023/06/28 07:36:21;;;;;;;2.42;1.75;;;24.40;52.10;;;;;;899736;155;27386;-74
2023/06/28 07:38:49;;;;;;;2.40;1.50;;;24.60;52.10;;;;;;899083;154;27408;-74
2023/06/28 07:41:14;;;;;;;2.00;1.40;;;24.70;52.00;;;;;;900589;155;27376;-74
2023/06/28 07:43:40;;;;;;;4.10;1.60;;;25.00;52.00;;;;;;901323;155;27383;-74
2023/06/28 07:46:07;;;;;;;1.47;1.37;;;25.20;51.80;;;;;;896485;155;27481;-74
2023/06/28 07:48:33;;;;;;;4.05;1.47;;;25.50;51.80;;;;;;898242;155;27408;-74
2023/06/28 07:51:00;;;;;;;1.90;1.75;;;25.90;52.00;;;;;;898859;155;27436;-74
2023/06/28 07:53:27;;;;;;;1.77;1.47;;;26.40;52.50;;;;;;883025;158;27351;-74
2023/06/28 07:55:53;;;;;;;2.70;1.32;;;27.10;53.10;;;;;;898528;155;26302;-75
2023/06/28 07:58:20;;;;;;;3.05;1.35;;;28.00;52.90;;;;;;896042;155;27303;-74
2023/06/28 08:00:46;;;;;;;2.37;1.40;;;28.80;51.50;;;;;;900177;155;27407;-74
2023/06/28 08:03:13;;;;;;;3.08;1.80;;;29.60;50.10;;;;;;899524;155;27784;-74
2023/06/28 08:05:40;;;;;;;4.12;2.00;;;30.20;48.90;;;;;;899454;157;27344;-74
2023/06/28 08:08:06;;;;;;;2.98;2.02;;;30.60;47.30;;;;;;898336;155;27438;-75
2023/06/28 08:10:33;;;;;;;2.75;1.40;;;30.90;46.50;;;;;;900996;155;26266;-74
2023/06/28 08:12:59;;;;;;;1.80;1.62;;;31.10;46.00;;;;;;899579;155;27471;-74
2023/06/28 08:15:26;;;;;;;1.85;1.47;;;31.30;45.70;;;;;;896298;155;27469;-75
2023/06/28 08:17:53;;;;;;;11.95;1.92;;;31.50;45.60;;;;;;898698;155;27381;-74
2023/06/28 08:20:19;;;;;;;3.60;1.37;;;31.80;45.30;;;;;;900444;156;27378;-75
2023/06/28 08:22:46;;;;;;;2.70;1.55;;;32.00;44.70;;;;;;897885;155;27466;-75
2023/06/28 08:25:12;;;;;;;3.47;1.40;;;32.20;44.10;;;;;;897512;155;27402;-74
2023/06/28 08:27:39;;;;;;;2.27;1.32;;;32.30;43.60;;;;;;899117;155;27417;-75
2023/06/28 08:30:06;;;;;;;3.77;1.77;;;32.40;43.40;;;;;;898284;155;27336;-74
2023/06/28 08:32:34;;;;;;;4.30;2.10;;;32.40;42.90;;;;;;898741;155;27373;-74
2023/06/28 08:34:59;;;;;;;2.33;1.67;;;32.40;42.60;;;;;;899835;155;27445;-74
2023/06/28 08:37:26;;;;;;;2.10;1.57;;;32.30;42.40;;;;;;897822;155;27833;-74
2023/06/28 08:39:52;;;;;;;3.62;1.52;;;32.30;42.20;;;;;;898243;155;27371;-74
2023/06/28 08:42:19;;;;;;;2.42;1.47;;;32.30;42.40;;;;;;899585;155;27400;-74
2023/06/28 08:44:45;;;;;;;3.05;1.80;;;32.40;42.50;;;;;;898355;155;27475;-75
2023/06/28 08:47:13;;;;;;;2.75;1.50;;;32.60;42.40;;;;;;899876;155;27395;-75
2023/06/28 08:49:38;;;;;;;1.62;1.40;;;32.80;42.50;;;;;;897233;155;27380;-74
2023/06/28 08:52:05;;;;;;;1.52;1.25;;;33.20;42.50;;;;;;900126;155;27464;-75
2023/06/28 08:54:32;;;;;;;1.52;1.30;;;33.60;42.40;;;;;;898638;155;26262;-74
2023/06/28 08:56:58;;;;;;;2.37;1.45;;;34.10;42.40;;;;;;900088;155;26309;-75
2023/06/28 08:59:25;;;;;;;3.00;1.90;;;34.80;42.70;;;;;;899220;155;26470;-75
2023/06/28 09:01:55;;;;;;;2.47;1.50;;;35.50;42.10;;;;;;897712;155;26281;-75
2023/06/28 09:04:18;;;;;;;1.90;1.20;;;36.40;41.80;;;;;;896712;156;26357;-75
2023/06/28 09:06:45;;;;;;;3.67;1.30;;;37.40;41.20;;;;;;899062;155;26685;-75
2023/06/28 09:09:11;;;;;;;3.02;1.47;;;38.30;40.50;;;;;;898744;155;26287;-75
2023/06/28 09:11:38;;;;;;;7.62;1.55;;;39.20;39.10;;;;;;899068;155;26262;-75
2023/06/28 09:14:04;;;;;;;2.90;1.87;;;39.90;37.50;;;;;;898812;155;26394;-75
2023/06/28 09:16:31;;;;;;;1.20;1.10;;;40.30;36.00;;;;;;899107;155;27633;-75
2023/06/28 09:18:58;;;;;;;2.83;1.47;;;40.60;35.10;;;;;;900808;155;26308;-75
2023/06/28 09:21:28;;;;;;;0.98;0.98;;;40.90;34.40;;;;;;898740;155;26311;-75
2023/06/28 09:23:54;;;;;;;6.03;1.40;;;41.00;33.80;;;;;;897765;155;26317;-75
2023/06/28 09:26:20;;;;;;;2.02;1.42;;;41.10;33.70;;;;;;898340;155;26263;-75
2023/06/28 09:28:47;;;;;;;3.35;1.40;;;41.40;33.60;;;;;;890528;155;26409;-75
2023/06/28 09:31:13;;;;;;;2.33;1.35;;;41.60;33.40;;;;;;897937;155;26307;-75
2023/06/28 09:33:40;;;;;;;2.05;1.40;;;42.10;33.00;;;;;;873430;161;26507;-75
2023/06/28 09:36:07;;;;;;;1.75;1.02;;;42.40;32.50;;;;;;898129;155;26415;-75
2023/06/28 09:38:33;;;;;;;2.83;1.55;;;42.50;31.50;;;;;;897693;155;26301;-75
2023/06/28 09:41:00;;;;;;;3.27;1.80;;;42.50;30.40;;;;;;896667;157;26348;-74
2023/06/28 09:43:35;;;;;;;3.08;1.40;;;42.30;29.80;;;;;;899764;155;26210;-74
2023/06/28 09:45:58;;;;;;;2.70;1.40;;;41.80;29.50;;;;;;896687;155;26381;-74
2023/06/28 09:48:26;;;;;;;2.35;1.50;;;41.20;29.50;;;;;;896804;157;26389;-74
2023/06/28 09:50:52;;;;;;;2.12;1.42;;;40.50;29.50;;;;;;897814;155;26425;-74
2023/06/28 09:53:19;;;;;;;2.47;1.30;;;39.80;29.60;;;;;;898458;155;26270;-74
2023/06/28 09:55:45;;;;;;;3.62;1.67;;;39.00;29.70;;;;;;898324;155;26371;-74
2023/06/28 09:58:14;;;;;;;4.00;1.57;;;38.30;30.00;;;;;;896997;157;27333;-74
2023/06/28 10:00:40;;;;;;;2.12;1.27;;;37.60;30.30;;;;;;898725;155;26283;-74
2023/06/28 10:03:07;;;;;;;3.05;1.70;;;37.00;30.60;;;;;;899229;154;26239;-74
2023/06/28 10:05:33;;;;;;;2.37;1.40;;;36.40;30.90;;;;;;899796;155;27397;-74
2023/06/28 10:08:00;;;;;;;2.08;1.20;;;35.80;31.20;;;;;;900190;155;27434;-74
2023/06/28 10:10:27;;;;;;;3.62;1.62;;;35.30;31.50;;;;;;897939;155;27419;-74
2023/06/28 10:12:53;;;;;;;3.58;1.52;;;34.90;32.00;;;;;;898942;154;27463;-74
2023/06/28 10:15:20;;;;;;;2.08;1.67;;;34.50;32.40;;;;;;899431;155;27408;-74
2023/06/28 10:17:47;;;;;;;4.22;1.60;;;34.20;32.80;;;;;;897848;155;27344;-74
2023/06/28 10:20:13;;;;;;;2.10;1.50;;;33.90;33.20;;;;;;896970;155;27787;-74
2023/06/28 10:22:40;;;;;;;3.22;1.75;;;33.70;33.50;;;;;;897290;155;27501;-74
2023/06/28 10:25:06;;;;;;;1.70;1.40;;;33.60;33.80;;;;;;886709;157;27599;-74
2023/06/28 10:27:36;;;;;;;2.35;1.75;;;33.60;34.60;;;;;;897675;155;27376;-74
2023/06/28 10:30:02;;;;;;;3.75;1.77;;;33.70;34.20;;;;;;895552;155;27418;-74
2023/06/28 10:32:28;;;;;;;4.08;2.25;;;33.90;34.10;;;;;;897704;155;27392;-74
2023/06/28 10:34:58;;;;;;;2.75;1.50;;;33.90;33.80;;;;;;898445;155;27431;-75
2023/06/28 10:37:24;;;;;;;3.85;1.67;;;33.90;33.80;;;;;;898698;156;27480;-74
2023/06/28 10:39:51;;;;;;;4.17;1.50;;;34.00;33.80;;;;;;896360;155;27418;-74
2023/06/28 10:42:20;;;;;;;3.85;1.80;;;34.00;33.60;;;;;;897936;155;27373;-74
2023/06/28 10:44:50;;;;;;;2.67;1.65;;;33.90;33.50;;;;;;897898;155;27388;-75
2023/06/28 10:47:16;;;;;;;3.70;2.12;;;33.70;33.60;;;;;;898836;155;27370;-76
2023/06/28 10:49:43;;;;;;;5.30;1.85;;;33.70;33.90;;;;;;897458;155;27436;-76
2023/06/28 10:52:13;;;;;;;3.42;1.70;;;33.50;33.80;;;;;;897563;155;27478;-76
2023/06/28 10:54:39;;;;;;;2.22;1.55;;;33.50;33.80;;;;;;899303;155;27396;-75
2023/06/28 10:57:09;;;;;;;2.83;1.75;;;33.40;34.00;;;;;;898557;155;27367;-76
2023/06/28 10:59:35;;;;;;;3.05;1.70;;;33.30;34.00;;;;;;896893;155;27414;-75
2023/06/28 11:02:02;;;;;;;2.35;1.77;;;33.20;33.90;;;;;;898267;155;27382;-76
2023/06/28 11:04:29;;;;;;;2.90;1.75;;;33.10;34.10;;;;;;891489;155;27387;-76
2023/06/28 11:07:08;;;;;;;1.75;1.65;;;33.00;34.20;;;;;;898536;155;27336;-76
2023/06/28 11:09:34;;;;;;;3.85;1.92;;;32.80;34.30;;;;;;899199;155;27383;-76
2023/06/28 11:12:01;;;;;;;1.72;1.42;;;32.70;34.40;;;;;;897613;155;27483;-76
2023/06/28 11:14:27;;;;;;;2.72;2.00;;;32.50;34.60;;;;;;899965;154;27368;-75
2023/06/28 11:16:54;;;;;;;2.20;1.65;;;32.40;34.80;;;;;;897019;155;27329;-76
2023/06/28 11:19:24;;;;;;;3.27;1.90;;;32.30;34.80;;;;;;897358;155;27352;-76
2023/06/28 11:21:48;;;;;;;4.83;2.02;;;32.30;35.10;;;;;;899482;155;27514;-76
2023/06/28 11:24:14;;;;;;;3.27;1.72;;;32.30;35.40;;;;;;899250;157;27431;-76
2023/06/28 11:26:40;;;;;;;4.05;1.70;;;32.20;35.60;;;;;;897557;155;27516;-76
2023/06/28 11:29:18;;;;;;;1.75;1.45;;;32.30;35.60;;;;;;897953;156;27392;-76
2023/06/28 11:31:42;;;;;;;4.42;1.70;;;32.20;35.30;;;;;;899386;156;27477;-76
2023/06/28 11:34:09;;;;;;;5.08;1.67;;;32.20;35.30;;;;;;898148;155;27449;-76
2023/06/28 11:36:36;;;;;;;2.22;1.77;;;32.10;35.30;;;;;;898960;155;27337;-76
2023/06/28 11:39:03;;;;;;;2.25;1.75;;;32.00;35.30;;;;;;900200;155;27318;-76
2023/06/28 11:41:30;;;;;;;3.67;1.70;;;31.90;34.80;;;;;;898827;157;27393;-76
2023/06/28 11:43:55;;;;;;;3.05;1.77;;;31.80;35.60;;;;;;897695;155;27470;-76
2023/06/28 11:46:22;;;;;;;3.25;1.85;;;31.70;35.70;;;;;;898114;155;27424;-76
2023/06/28 11:48:48;;;;;;;3.22;1.77;;;31.60;35.80;;;;;;900369;155;27355;-76
2023/06/28 11:51:15;;;;;;;4.03;1.65;;;31.50;35.90;;;;;;898155;155;27388;-76
2023/06/28 11:53:42;;;;;;;8.48;2.47;;;31.50;36.90;;;;;;896985;155;27461;-76
2023/06/28 11:56:08;;;;;;;4.75;1.98;;;31.50;36.30;;;;;;898456;155;27774;-76
2023/06/28 11:58:35;;;;;;;2.15;1.80;;;31.50;36.30;;;;;;898987;157;27429;-76
2023/06/28 12:01:01;;;;;;;1.98;1.75;;;31.50;36.30;;;;;;898586;155;27318;-76
2023/06/28 12:03:34;;;;;;;1.67;1.50;;;31.60;36.40;;;;;;898926;157;27303;-76
2023/06/28 12:06:00;;;;;;;2.55;1.32;;;31.70;36.30;;;;;;899771;158;27403;-76
2023/06/28 12:08:27;;;;;;;1.87;1.40;;;31.70;36.10;;;;;;897505;155;27363;-76
2023/06/28 12:10:55;;;;;;;2.12;1.47;;;31.70;36.10;;;;;;900827;155;27431;-75
2023/06/28 12:13:20;;;;;;;2.98;1.60;;;31.60;36.00;;;;;;897927;155;27351;-76
2023/06/28 12:15:47;;;;;;;3.75;2.00;;;31.60;36.00;;;;;;897576;155;27487;-76
2023/06/28 12:18:13;;;;;;;2.12;1.60;;;31.60;36.20;;;;;;898994;155;27405;-76
2023/06/28 12:20:40;;;;;;;3.65;1.87;;;31.50;36.10;;;;;;898183;155;27420;-75
2023/06/28 12:23:13;;;;;;;2.17;1.55;;;31.50;36.10;;;;;;898118;155;27381;-75
2023/06/28 12:25:42;;;;;;;5.50;2.10;;;31.50;36.20;;;;;;898418;155;27526;-76
2023/06/28 12:28:09;;;;;;;4.03;2.12;;;31.50;36.30;;;;;;898079;157;27399;-76
2023/06/28 12:30:35;;;;;;;3.10;1.67;;;31.50;36.50;;;;;;895968;155;27403;-75
2023/06/28 12:33:02;;;;;;;3.30;1.90;;;31.50;36.50;;;;;;896637;155;27408;-76
2023/06/28 12:35:29;;;;;;;1.65;1.30;;;31.50;36.50;;;;;;897256;155;27369;-76
2023/06/28 12:37:58;;;;;;;2.70;1.72;;;31.60;36.60;;;;;;891727;157;27428;-76
2023/06/28 12:40:35;;;;;;;2.17;1.57;;;31.60;36.60;;;;;;898771;155;27375;-76
2023/06/28 12:43:13;;;;;;;3.58;1.70;;;31.60;36.30;;;;;;897649;155;27391;-76
2023/06/28 12:45:43;;;;;;;5.17;1.92;;;31.60;36.10;;;;;;897888;155;27419;-76